sensor_id;sensor_type;location;lat;lon;timestamp;temperature;humidity
47482;DHT22;33219;47.410;9.730;2024-02-26T00:02:06;6.60;90.90
47482;DHT22;33219;47.410;9.730;2024-02-26T00:04:33;6.50;91.60
47482;DHT22;33219;47.410;9.730;2024-02-26T00:07:00;6.50;91.60
47482;DHT22;33219;47.410;9.730;2024-02-26T00:09:26;6.50;91.40
47482;DHT22;33219;47.410;9.730;2024-02-26T00:11:53;6.50;91.40
47482;DHT22;33219;47.410;9.730;2024-02-26T00:14:21;6.60;90.80
47482;DHT22;33219;47.410;9.730;2024-02-26T00:16:48;6.70;91.10
47482;DHT22;33219;47.410;9.730;2024-02-26T00:19:15;6.70;91.40
47482;DHT22;33219;47.410;9.730;2024-02-26T00:21:41;6.70;91.20
47482;DHT22;33219;47.410;9.730;2024-02-26T00:24:08;6.80;90.40
47482;DHT22;33219;47.410;9.730;2024-02-26T00:26:35;6.80;91.00
47482;DHT22;33219;47.410;9.730;2024-02-26T00:29:02;6.80;91.50
47482;DHT22;33219;47.410;9.730;2024-02-26T00:31:29;6.80;91.60
47482;DHT22;33219;47.410;9.730;2024-02-26T00:33:56;6.80;91.20
47482;DHT22;33219;47.410;9.730;2024-02-26T00:36:23;6.90;90.80
47482;DHT22;33219;47.410;9.730;2024-02-26T00:38:50;6.90;90.40
47482;DHT22;33219;47.410;9.730;2024-02-26T00:41:17;7.00;90.50
47482;DHT22;33219;47.410;9.730;2024-02-26T00:43:44;7.00;90.50
47482;DHT22;33219;47.410;9.730;2024-02-26T00:46:11;7.00;90.60
47482;DHT22;33219;47.410;9.730;2024-02-26T00:48:38;7.10;91.00
47482;DHT22;33219;47.410;9.730;2024-02-26T00:51:05;7.10;90.90
47482;DHT22;33219;47.410;9.730;2024-02-26T00:53:33;7.10;91.00
47482;DHT22;33219;47.410;9.730;2024-02-26T00:56:00;7.10;91.60
47482;DHT22;33219;47.410;9.730;2024-02-26T00:58:27;7.00;91.40
47482;DHT22;33219;47.410;9.730;2024-02-26T01:00:54;7.10;91.90
47482;DHT22;33219;47.410;9.730;2024-02-26T01:03:21;7.10;91.70
47482;DHT22;33219;47.410;9.730;2024-02-26T01:05:48;7.10;91.40
47482;DHT22;33219;47.410;9.730;2024-02-26T01:08:14;7.10;91.50
47482;DHT22;33219;47.410;9.730;2024-02-26T01:10:42;7.20;91.40
47482;DHT22;33219;47.410;9.730;2024-02-26T01:13:08;7.20;91.50
47482;DHT22;33219;47.410;9.730;2024-02-26T01:15:35;7.20;91.40
47482;DHT22;33219;47.410;9.730;2024-02-26T01:18:02;7.20;92.10
47482;DHT22;33219;47.410;9.730;2024-02-26T01:20:29;7.30;91.90
47482;DHT22;33219;47.410;9.730;2024-02-26T01:22:56;7.30;91.70
47482;DHT22;33219;47.410;9.730;2024-02-26T01:25:22;7.30;91.50
47482;DHT22;33219;47.410;9.730;2024-02-26T01:27:49;7.20;91.40
47482;DHT22;33219;47.410;9.730;2024-02-26T01:30:16;7.20;91.70
47482;DHT22;33219;47.410;9.730;2024-02-26T01:32:43;7.30;91.70
47482;DHT22;33219;47.410;9.730;2024-02-26T01:35:10;7.20;91.80
47482;DHT22;33219;47.410;9.730;2024-02-26T01:37:38;7.30;92.20
47482;DHT22;33219;47.410;9.730;2024-02-26T01:40:05;7.40;92.20
47482;DHT22;33219;47.410;9.730;2024-02-26T01:42:32;7.40;91.10
47482;DHT22;33219;47.410;9.730;2024-02-26T01:44:59;7.50;91.60
47482;DHT22;33219;47.410;9.730;2024-02-26T01:47:26;7.50;91.90
47482;DHT22;33219;47.410;9.730;2024-02-26T01:49:54;7.50;92.00
47482;DHT22;33219;47.410;9.730;2024-02-26T01:52:21;7.50;92.20
47482;DHT22;33219;47.410;9.730;2024-02-26T01:54:48;7.60;91.90
47482;DHT22;33219;47.410;9.730;2024-02-26T01:57:15;7.50;91.90
47482;DHT22;33219;47.410;9.730;2024-02-26T01:59:43;7.60;91.50
47482;DHT22;33219;47.410;9.730;2024-02-26T02:02:10;7.70;90.40
47482;DHT22;33219;47.410;9.730;2024-02-26T02:04:38;7.80;90.80
47482;DHT22;33219;47.410;9.730;2024-02-26T02:07:05;7.90;90.90
47482;DHT22;33219;47.410;9.730;2024-02-26T02:09:32;7.90;91.50
47482;DHT22;33219;47.410;9.730;2024-02-26T02:11:59;7.90;91.50
47482;DHT22;33219;47.410;9.730;2024-02-26T02:14:26;8.00;90.40
47482;DHT22;33219;47.410;9.730;2024-02-26T02:16:53;8.20;91.00
47482;DHT22;33219;47.410;9.730;2024-02-26T02:19:20;8.20;90.60
47482;DHT22;33219;47.410;9.730;2024-02-26T02:21:47;8.30;90.70
47482;DHT22;33219;47.410;9.730;2024-02-26T02:24:14;8.30;91.40
47482;DHT22;33219;47.410;9.730;2024-02-26T02:26:41;8.20;91.40
47482;DHT22;33219;47.410;9.730;2024-02-26T02:29:07;8.20;91.70
47482;DHT22;33219;47.410;9.730;2024-02-26T02:31:35;8.20;91.70
47482;DHT22;33219;47.410;9.730;2024-02-26T02:34:02;8.20;90.60
47482;DHT22;33219;47.410;9.730;2024-02-26T02:36:29;8.40;88.90
47482;DHT22;33219;47.410;9.730;2024-02-26T02:38:56;8.50;88.90
47482;DHT22;33219;47.410;9.730;2024-02-26T02:41:23;8.70;87.90
47482;DHT22;33219;47.410;9.730;2024-02-26T02:43:50;8.90;86.80
47482;DHT22;33219;47.410;9.730;2024-02-26T02:46:16;9.00;86.70
47482;DHT22;33219;47.410;9.730;2024-02-26T02:48:44;9.10;86.60
47482;DHT22;33219;47.410;9.730;2024-02-26T02:51:11;9.20;86.30
47482;DHT22;33219;47.410;9.730;2024-02-26T02:53:37;9.20;87.00
47482;DHT22;33219;47.410;9.730;2024-02-26T02:56:04;9.20;86.30
47482;DHT22;33219;47.410;9.730;2024-02-26T02:58:31;9.20;87.10
47482;DHT22;33219;47.410;9.730;2024-02-26T03:00:58;9.10;89.20
47482;DHT22;33219;47.410;9.730;2024-02-26T03:03:26;9.00;90.10
47482;DHT22;33219;47.410;9.730;2024-02-26T03:05:54;8.80;90.40
47482;DHT22;33219;47.410;9.730;2024-02-26T03:08:21;8.70;90.90
47482;DHT22;33219;47.410;9.730;2024-02-26T03:10:48;8.60;90.70
47482;DHT22;33219;47.410;9.730;2024-02-26T03:13:15;8.50;91.00
47482;DHT22;33219;47.410;9.730;2024-02-26T03:15:41;8.40;91.30
47482;DHT22;33219;47.410;9.730;2024-02-26T03:18:08;8.30;91.30
47482;DHT22;33219;47.410;9.730;2024-02-26T03:20:35;8.20;92.20
47482;DHT22;33219;47.410;9.730;2024-02-26T03:23:03;8.10;92.00
47482;DHT22;33219;47.410;9.730;2024-02-26T03:25:29;8.10;92.20
47482;DHT22;33219;47.410;9.730;2024-02-26T03:27:56;8.00;92.50
47482;DHT22;33219;47.410;9.730;2024-02-26T03:30:23;8.00;92.20
47482;DHT22;33219;47.410;9.730;2024-02-26T03:32:50;8.00;92.40
47482;DHT22;33219;47.410;9.730;2024-02-26T03:35:17;7.90;92.20
47482;DHT22;33219;47.410;9.730;2024-02-26T03:37:45;7.90;92.30
47482;DHT22;33219;47.410;9.730;2024-02-26T03:40:13;7.90;92.10
47482;DHT22;33219;47.410;9.730;2024-02-26T03:42:40;8.10;91.30
47482;DHT22;33219;47.410;9.730;2024-02-26T03:45:07;8.10;91.20
47482;DHT22;33219;47.410;9.730;2024-02-26T03:47:35;8.20;91.10
47482;DHT22;33219;47.410;9.730;2024-02-26T03:50:01;8.30;91.20
47482;DHT22;33219;47.410;9.730;2024-02-26T03:52:29;8.30;91.40
47482;DHT22;33219;47.410;9.730;2024-02-26T03:54:56;8.20;91.90
47482;DHT22;33219;47.410;9.730;2024-02-26T03:57:23;8.10;92.90
47482;DHT22;33219;47.410;9.730;2024-02-26T03:59:50;7.80;93.50
47482;DHT22;33219;47.410;9.730;2024-02-26T04:02:17;7.60;93.90
47482;DHT22;33219;47.410;9.730;2024-02-26T04:04:45;7.50;94.40
47482;DHT22;33219;47.410;9.730;2024-02-26T04:07:12;7.40;95.20
47482;DHT22;33219;47.410;9.730;2024-02-26T04:09:39;7.20;96.10
47482;DHT22;33219;47.410;9.730;2024-02-26T04:12:06;7.10;96.70
47482;DHT22;33219;47.410;9.730;2024-02-26T04:14:33;7.00;97.00
47482;DHT22;33219;47.410;9.730;2024-02-26T04:17:00;6.90;97.00
47482;DHT22;33219;47.410;9.730;2024-02-26T04:19:27;6.90;97.20
47482;DHT22;33219;47.410;9.730;2024-02-26T04:21:54;6.80;97.40
47482;DHT22;33219;47.410;9.730;2024-02-26T04:24:22;6.80;97.40
47482;DHT22;33219;47.410;9.730;2024-02-26T04:26:49;6.80;97.60
47482;DHT22;33219;47.410;9.730;2024-02-26T04:29:16;6.80;97.60
47482;DHT22;33219;47.410;9.730;2024-02-26T04:31:42;6.80;97.60
47482;DHT22;33219;47.410;9.730;2024-02-26T04:34:09;6.70;97.80
47482;DHT22;33219;47.410;9.730;2024-02-26T04:36:36;6.70;97.90
47482;DHT22;33219;47.410;9.730;2024-02-26T04:39:03;6.80;98.00
47482;DHT22;33219;47.410;9.730;2024-02-26T04:41:30;6.70;98.40
47482;DHT22;33219;47.410;9.730;2024-02-26T04:43:57;6.70;98.60
47482;DHT22;33219;47.410;9.730;2024-02-26T04:46:23;6.70;98.80
47482;DHT22;33219;47.410;9.730;2024-02-26T04:48:51;6.60;98.60
47482;DHT22;33219;47.410;9.730;2024-02-26T04:51:18;6.60;98.90
47482;DHT22;33219;47.410;9.730;2024-02-26T04:53:45;6.60;99.10
47482;DHT22;33219;47.410;9.730;2024-02-26T04:56:11;6.60;99.50
47482;DHT22;33219;47.410;9.730;2024-02-26T04:58:38;6.60;99.60
47482;DHT22;33219;47.410;9.730;2024-02-26T05:01:05;6.50;99.50
47482;DHT22;33219;47.410;9.730;2024-02-26T05:03:32;6.50;99.80
47482;DHT22;33219;47.410;9.730;2024-02-26T05:06:00;6.50;99.90
47482;DHT22;33219;47.410;9.730;2024-02-26T05:08:27;6.50;99.10
47482;DHT22;33219;47.410;9.730;2024-02-26T05:10:55;6.50;98.40
47482;DHT22;33219;47.410;9.730;2024-02-26T05:13:22;6.50;98.50
47482;DHT22;33219;47.410;9.730;2024-02-26T05:15:49;6.60;98.90
47482;DHT22;33219;47.410;9.730;2024-02-26T05:18:17;6.60;98.60
47482;DHT22;33219;47.410;9.730;2024-02-26T05:20:44;6.60;98.50
47482;DHT22;33219;47.410;9.730;2024-02-26T05:23:11;6.60;98.50
47482;DHT22;33219;47.410;9.730;2024-02-26T05:25:38;6.70;97.70
47482;DHT22;33219;47.410;9.730;2024-02-26T05:28:05;6.70;97.10
47482;DHT22;33219;47.410;9.730;2024-02-26T05:30:31;6.70;97.40
47482;DHT22;33219;47.410;9.730;2024-02-26T05:32:58;6.80;97.10
47482;DHT22;33219;47.410;9.730;2024-02-26T05:35:25;6.80;97.50
47482;DHT22;33219;47.410;9.730;2024-02-26T05:37:52;6.80;97.20
47482;DHT22;33219;47.410;9.730;2024-02-26T05:40:19;6.90;96.70
47482;DHT22;33219;47.410;9.730;2024-02-26T05:42:46;6.90;96.50
47482;DHT22;33219;47.410;9.730;2024-02-26T05:45:14;6.90;96.60
47482;DHT22;33219;47.410;9.730;2024-02-26T05:47:41;6.90;97.00
47482;DHT22;33219;47.410;9.730;2024-02-26T05:50:09;6.80;97.10
47482;DHT22;33219;47.410;9.730;2024-02-26T05:52:39;6.80;97.30
47482;DHT22;33219;47.410;9.730;2024-02-26T05:55:06;6.70;97.30
47482;DHT22;33219;47.410;9.730;2024-02-26T05:57:33;6.70;97.20
47482;DHT22;33219;47.410;9.730;2024-02-26T06:00:00;6.80;97.50
47482;DHT22;33219;47.410;9.730;2024-02-26T06:02:29;6.70;97.80
47482;DHT22;33219;47.410;9.730;2024-02-26T06:04:56;6.70;98.30
47482;DHT22;33219;47.410;9.730;2024-02-26T06:07:23;6.60;98.40
47482;DHT22;33219;47.410;9.730;2024-02-26T06:09:50;6.50;98.80
47482;DHT22;33219;47.410;9.730;2024-02-26T06:12:17;6.40;99.20
47482;DHT22;33219;47.410;9.730;2024-02-26T06:14:44;6.20;99.60
47482;DHT22;33219;47.410;9.730;2024-02-26T06:17:11;6.10;99.50
47482;DHT22;33219;47.410;9.730;2024-02-26T06:19:37;6.10;99.60
47482;DHT22;33219;47.410;9.730;2024-02-26T06:22:04;6.00;99.60
47482;DHT22;33219;47.410;9.730;2024-02-26T06:24:32;6.00;99.40
47482;DHT22;33219;47.410;9.730;2024-02-26T06:27:00;6.00;98.90
47482;DHT22;33219;47.410;9.730;2024-02-26T06:29:32;6.10;99.50
47482;DHT22;33219;47.410;9.730;2024-02-26T06:32:09;6.00;99.50
47482;DHT22;33219;47.410;9.730;2024-02-26T06:34:43;6.10;99.00
47482;DHT22;33219;47.410;9.730;2024-02-26T06:46:11;6.40;98.70
47482;DHT22;33219;47.410;9.730;2024-02-26T06:51:57;6.50;98.40
47482;DHT22;33219;47.410;9.730;2024-02-26T06:54:51;6.50;98.60
47482;DHT22;33219;47.410;9.730;2024-02-26T06:57:27;6.80;98.60
47482;DHT22;33219;47.410;9.730;2024-02-26T07:00:05;6.80;98.00
47482;DHT22;33219;47.410;9.730;2024-02-26T07:02:49;6.90;98.20
47482;DHT22;33219;47.410;9.730;2024-02-26T07:05:16;7.00;98.60
47482;DHT22;33219;47.410;9.730;2024-02-26T07:21:46;7.20;96.60
47482;DHT22;33219;47.410;9.730;2024-02-26T07:30:11;7.60;95.80
47482;DHT22;33219;47.410;9.730;2024-02-26T07:32:48;7.60;96.10
47482;DHT22;33219;47.410;9.730;2024-02-26T07:35:36;7.70;95.60
47482;DHT22;33219;47.410;9.730;2024-02-26T08:27:38;9.60;95.40
47482;DHT22;33219;47.410;9.730;2024-02-26T08:30:33;9.70;94.40
47482;DHT22;33219;47.410;9.730;2024-02-26T08:33:18;10.00;94.30
47482;DHT22;33219;47.410;9.730;2024-02-26T08:36:15;10.20;94.10
47482;DHT22;33219;47.410;9.730;2024-02-26T08:41:52;10.30;93.40
47482;DHT22;33219;47.410;9.730;2024-02-26T08:44:39;10.30;93.40
47482;DHT22;33219;47.410;9.730;2024-02-26T08:47:08;10.30;93.40
47482;DHT22;33219;47.410;9.730;2024-02-26T08:58:13;10.10;93.10
47482;DHT22;33219;47.410;9.730;2024-02-26T09:00:47;10.00;93.70
47482;DHT22;33219;47.410;9.730;2024-02-26T09:03:18;9.90;93.80
47482;DHT22;33219;47.410;9.730;2024-02-26T09:08:54;9.90;93.80
47482;DHT22;33219;47.410;9.730;2024-02-26T09:23:06;11.30;92.80
47482;DHT22;33219;47.410;9.730;2024-02-26T09:25:42;11.80;92.20
47482;DHT22;33219;47.410;9.730;2024-02-26T09:28:18;12.20;91.60
47482;DHT22;33219;47.410;9.730;2024-02-26T09:31:00;12.30;91.10
47482;DHT22;33219;47.410;9.730;2024-02-26T09:42:12;12.60;90.20
47482;DHT22;33219;47.410;9.730;2024-02-26T09:44:56;12.60;89.50
47482;DHT22;33219;47.410;9.730;2024-02-26T09:50:11;13.00;88.00
47482;DHT22;33219;47.410;9.730;2024-02-26T09:52:46;13.00;87.90
47482;DHT22;33219;47.410;9.730;2024-02-26T09:55:21;13.00;88.00
47482;DHT22;33219;47.410;9.730;2024-02-26T09:57:59;13.10;88.20
47482;DHT22;33219;47.410;9.730;2024-02-26T10:03:38;13.30;87.00
47482;DHT22;33219;47.410;9.730;2024-02-26T10:06:11;13.20;87.60
47482;DHT22;33219;47.410;9.730;2024-02-26T10:08:48;13.20;86.30
47482;DHT22;33219;47.410;9.730;2024-02-26T10:11:27;13.20;86.30
47482;DHT22;33219;47.410;9.730;2024-02-26T10:14:02;13.10;85.60
47482;DHT22;33219;47.410;9.730;2024-02-26T10:16:36;13.10;84.80
47482;DHT22;33219;47.410;9.730;2024-02-26T10:19:12;13.10;84.90
47482;DHT22;33219;47.410;9.730;2024-02-26T10:24:39;13.10;85.80
47482;DHT22;33219;47.410;9.730;2024-02-26T10:27:17;13.10;83.90
47482;DHT22;33219;47.410;9.730;2024-02-26T10:32:30;13.10;83.90
47482;DHT22;33219;47.410;9.730;2024-02-26T10:35:10;13.10;84.10
47482;DHT22;33219;47.410;9.730;2024-02-26T10:37:34;13.20;83.70
47482;DHT22;33219;47.410;9.730;2024-02-26T10:51:54;12.80;93.20
47482;DHT22;33219;47.410;9.730;2024-02-26T10:54:35;12.30;94.10
47482;DHT22;33219;47.410;9.730;2024-02-26T11:00:13;11.60;94.10
47482;DHT22;33219;47.410;9.730;2024-02-26T11:05:43;11.20;95.00
47482;DHT22;33219;47.410;9.730;2024-02-26T11:21:31;10.60;95.30
47482;DHT22;33219;47.410;9.730;2024-02-26T11:24:16;10.60;95.40
47482;DHT22;33219;47.410;9.730;2024-02-26T11:26:52;10.50;95.90
47482;DHT22;33219;47.410;9.730;2024-02-26T11:42:30;10.00;96.90
47482;DHT22;33219;47.410;9.730;2024-02-26T11:44:59;9.90;97.40
47482;DHT22;33219;47.410;9.730;2024-02-26T11:47:28;9.90;97.30
47482;DHT22;33219;47.410;9.730;2024-02-26T12:07:25;9.60;98.20
47482;DHT22;33219;47.410;9.730;2024-02-26T12:17:42;9.70;98.60
47482;DHT22;33219;47.410;9.730;2024-02-26T12:20:17;9.60;98.70
47482;DHT22;33219;47.410;9.730;2024-02-26T12:28:54;9.70;99.00
47482;DHT22;33219;47.410;9.730;2024-02-26T13:40:35;12.10;93.60
47482;DHT22;33219;47.410;9.730;2024-02-26T13:46:13;11.90;93.50
47482;DHT22;33219;47.410;9.730;2024-02-26T13:48:43;12.20;93.50
47482;DHT22;33219;47.410;9.730;2024-02-26T13:51:14;12.20;93.30
47482;DHT22;33219;47.410;9.730;2024-02-26T13:53:45;12.30;93.60
47482;DHT22;33219;47.410;9.730;2024-02-26T13:56:13;12.30;93.40
47482;DHT22;33219;47.410;9.730;2024-02-26T13:58:43;12.40;93.20
47482;DHT22;33219;47.410;9.730;2024-02-26T14:01:15;12.30;93.20
47482;DHT22;33219;47.410;9.730;2024-02-26T14:03:48;12.40;93.20
47482;DHT22;33219;47.410;9.730;2024-02-26T14:06:17;12.40;92.40
47482;DHT22;33219;47.410;9.730;2024-02-26T14:08:51;12.50;92.50
47482;DHT22;33219;47.410;9.730;2024-02-26T14:11:25;12.60;92.60
47482;DHT22;33219;47.410;9.730;2024-02-26T14:13:54;12.60;92.60
47482;DHT22;33219;47.410;9.730;2024-02-26T14:16:32;12.70;91.90
47482;DHT22;33219;47.410;9.730;2024-02-26T14:19:08;12.60;91.40
47482;DHT22;33219;47.410;9.730;2024-02-26T14:22:05;12.60;90.70
47482;DHT22;33219;47.410;9.730;2024-02-26T14:24:30;12.50;91.10
47482;DHT22;33219;47.410;9.730;2024-02-26T14:27:02;12.50;91.30
47482;DHT22;33219;47.410;9.730;2024-02-26T14:29:42;12.40;91.50
47482;DHT22;33219;47.410;9.730;2024-02-26T14:32:24;12.30;91.80
47482;DHT22;33219;47.410;9.730;2024-02-26T14:35:02;12.30;92.10
47482;DHT22;33219;47.410;9.730;2024-02-26T14:37:30;12.20;91.80
47482;DHT22;33219;47.410;9.730;2024-02-26T14:40:13;12.10;92.10
47482;DHT22;33219;47.410;9.730;2024-02-26T14:42:52;12.20;92.50
47482;DHT22;33219;47.410;9.730;2024-02-26T14:45:26;12.00;92.70
47482;DHT22;33219;47.410;9.730;2024-02-26T14:53:02;12.10;92.60
47482;DHT22;33219;47.410;9.730;2024-02-26T14:55:48;12.10;92.70
47482;DHT22;33219;47.410;9.730;2024-02-26T14:58:21;12.10;93.10
47482;DHT22;33219;47.410;9.730;2024-02-26T15:00:50;12.10;93.10
47482;DHT22;33219;47.410;9.730;2024-02-26T15:03:20;12.00;93.70
47482;DHT22;33219;47.410;9.730;2024-02-26T15:05:51;12.00;94.10
47482;DHT22;33219;47.410;9.730;2024-02-26T15:08:21;12.00;94.20
47482;DHT22;33219;47.410;9.730;2024-02-26T15:10:49;12.00;94.20
47482;DHT22;33219;47.410;9.730;2024-02-26T15:13:18;11.90;93.90
47482;DHT22;33219;47.410;9.730;2024-02-26T15:15:46;11.90;94.30
47482;DHT22;33219;47.410;9.730;2024-02-26T15:18:12;11.80;94.90
47482;DHT22;33219;47.410;9.730;2024-02-26T15:20:41;11.80;94.90
47482;DHT22;33219;47.410;9.730;2024-02-26T15:23:12;11.70;95.20
47482;DHT22;33219;47.410;9.730;2024-02-26T15:25:38;11.70;95.60
47482;DHT22;33219;47.410;9.730;2024-02-26T15:28:09;11.70;95.60
47482;DHT22;33219;47.410;9.730;2024-02-26T15:30:38;11.60;95.70
47482;DHT22;33219;47.410;9.730;2024-02-26T15:33:05;11.60;95.60
47482;DHT22;33219;47.410;9.730;2024-02-26T15:35:32;11.60;95.70
47482;DHT22;33219;47.410;9.730;2024-02-26T15:37:59;11.60;95.80
47482;DHT22;33219;47.410;9.730;2024-02-26T15:40:26;11.50;95.90
47482;DHT22;33219;47.410;9.730;2024-02-26T15:42:52;11.50;96.20
47482;DHT22;33219;47.410;9.730;2024-02-26T15:45:19;11.40;96.10
47482;DHT22;33219;47.410;9.730;2024-02-26T15:47:46;11.40;96.00
47482;DHT22;33219;47.410;9.730;2024-02-26T15:50:14;11.40;96.10
47482;DHT22;33219;47.410;9.730;2024-02-26T15:52:41;11.30;96.30
47482;DHT22;33219;47.410;9.730;2024-02-26T15:55:08;11.20;96.30
47482;DHT22;33219;47.410;9.730;2024-02-26T15:57:36;11.30;96.30
47482;DHT22;33219;47.410;9.730;2024-02-26T16:00:04;11.30;96.70
47482;DHT22;33219;47.410;9.730;2024-02-26T16:02:32;11.20;96.90
47482;DHT22;33219;47.410;9.730;2024-02-26T16:04:59;11.20;96.80
47482;DHT22;33219;47.410;9.730;2024-02-26T16:07:31;11.10;96.60
47482;DHT22;33219;47.410;9.730;2024-02-26T16:09:54;11.10;96.40
47482;DHT22;33219;47.410;9.730;2024-02-26T16:12:30;11.00;96.80
47482;DHT22;33219;47.410;9.730;2024-02-26T16:14:52;11.00;96.80
47482;DHT22;33219;47.410;9.730;2024-02-26T16:17:27;10.90;96.60
47482;DHT22;33219;47.410;9.730;2024-02-26T16:19:51;10.90;96.40
47482;DHT22;33219;47.410;9.730;2024-02-26T16:22:18;10.80;96.50
47482;DHT22;33219;47.410;9.730;2024-02-26T16:24:44;10.70;96.50
47482;DHT22;33219;47.410;9.730;2024-02-26T16:27:11;10.70;96.40
47482;DHT22;33219;47.410;9.730;2024-02-26T16:29:38;10.60;97.10
47482;DHT22;33219;47.410;9.730;2024-02-26T16:32:05;10.60;96.20
47482;DHT22;33219;47.410;9.730;2024-02-26T16:34:34;10.50;96.30
47482;DHT22;33219;47.410;9.730;2024-02-26T16:37:10;10.50;96.70
47482;DHT22;33219;47.410;9.730;2024-02-26T16:39:38;10.50;96.40
47482;DHT22;33219;47.410;9.730;2024-02-26T16:42:05;10.40;95.70
47482;DHT22;33219;47.410;9.730;2024-02-26T16:44:33;10.40;96.00
47482;DHT22;33219;47.410;9.730;2024-02-26T16:47:01;10.40;96.30
47482;DHT22;33219;47.410;9.730;2024-02-26T16:49:27;10.40;96.20
47482;DHT22;33219;47.410;9.730;2024-02-26T16:51:54;10.30;96.20
47482;DHT22;33219;47.410;9.730;2024-02-26T16:54:21;10.20;96.40
47482;DHT22;33219;47.410;9.730;2024-02-26T16:56:49;10.20;96.90
47482;DHT22;33219;47.410;9.730;2024-02-26T16:59:16;10.00;97.10
47482;DHT22;33219;47.410;9.730;2024-02-26T17:01:46;10.00;97.00
47482;DHT22;33219;47.410;9.730;2024-02-26T17:04:13;9.90;97.30
47482;DHT22;33219;47.410;9.730;2024-02-26T17:06:39;9.90;97.30
47482;DHT22;33219;47.410;9.730;2024-02-26T17:09:06;9.90;97.40
47482;DHT22;33219;47.410;9.730;2024-02-26T17:11:34;9.80;97.20
47482;DHT22;33219;47.410;9.730;2024-02-26T17:14:02;9.80;97.40
47482;DHT22;33219;47.410;9.730;2024-02-26T17:16:29;9.80;97.40
47482;DHT22;33219;47.410;9.730;2024-02-26T17:18:56;9.70;97.50
47482;DHT22;33219;47.410;9.730;2024-02-26T17:21:23;9.70;97.20
47482;DHT22;33219;47.410;9.730;2024-02-26T17:23:50;9.70;97.20
47482;DHT22;33219;47.410;9.730;2024-02-26T17:26:23;9.70;97.20
47482;DHT22;33219;47.410;9.730;2024-02-26T17:28:46;9.70;97.00
47482;DHT22;33219;47.410;9.730;2024-02-26T17:31:13;9.80;96.90
47482;DHT22;33219;47.410;9.730;2024-02-26T17:33:40;9.80;96.90
47482;DHT22;33219;47.410;9.730;2024-02-26T17:36:07;9.80;96.80
47482;DHT22;33219;47.410;9.730;2024-02-26T17:38:34;9.80;96.80
47482;DHT22;33219;47.410;9.730;2024-02-26T17:41:02;9.80;96.70
47482;DHT22;33219;47.410;9.730;2024-02-26T17:43:29;9.70;96.50
47482;DHT22;33219;47.410;9.730;2024-02-26T17:45:56;9.70;96.60
47482;DHT22;33219;47.410;9.730;2024-02-26T17:48:22;9.70;97.20
47482;DHT22;33219;47.410;9.730;2024-02-26T17:50:49;9.60;97.10
47482;DHT22;33219;47.410;9.730;2024-02-26T17:53:16;9.60;97.00
47482;DHT22;33219;47.410;9.730;2024-02-26T17:55:43;9.50;98.20
47482;DHT22;33219;47.410;9.730;2024-02-26T17:58:10;9.40;98.30
47482;DHT22;33219;47.410;9.730;2024-02-26T18:00:37;9.20;98.70
47482;DHT22;33219;47.410;9.730;2024-02-26T18:03:05;9.10;98.50
47482;DHT22;33219;47.410;9.730;2024-02-26T18:05:31;8.90;98.40
47482;DHT22;33219;47.410;9.730;2024-02-26T18:07:58;8.90;98.80
47482;DHT22;33219;47.410;9.730;2024-02-26T18:10:25;8.70;98.70
47482;DHT22;33219;47.410;9.730;2024-02-26T18:12:53;8.70;98.70
47482;DHT22;33219;47.410;9.730;2024-02-26T18:15:21;8.60;98.90
47482;DHT22;33219;47.410;9.730;2024-02-26T18:17:48;8.50;98.90
47482;DHT22;33219;47.410;9.730;2024-02-26T18:20:15;8.50;99.10
47482;DHT22;33219;47.410;9.730;2024-02-26T18:22:42;8.50;99.10
47482;DHT22;33219;47.410;9.730;2024-02-26T18:25:13;8.50;99.10
47482;DHT22;33219;47.410;9.730;2024-02-26T18:27:38;8.50;99.10
47482;DHT22;33219;47.410;9.730;2024-02-26T18:30:07;8.40;99.20
47482;DHT22;33219;47.410;9.730;2024-02-26T18:32:36;8.40;99.30
47482;DHT22;33219;47.410;9.730;2024-02-26T18:35:03;8.40;99.10
47482;DHT22;33219;47.410;9.730;2024-02-26T18:37:30;8.40;99.10
47482;DHT22;33219;47.410;9.730;2024-02-26T18:39:57;8.40;98.80
47482;DHT22;33219;47.410;9.730;2024-02-26T18:42:26;8.40;99.00
47482;DHT22;33219;47.410;9.730;2024-02-26T18:44:55;8.40;99.10
47482;DHT22;33219;47.410;9.730;2024-02-26T18:47:23;8.30;99.50
47482;DHT22;33219;47.410;9.730;2024-02-26T18:49:51;8.30;99.80
47482;DHT22;33219;47.410;9.730;2024-02-26T18:52:18;8.20;99.80
47482;DHT22;33219;47.410;9.730;2024-02-26T18:54:45;8.20;99.50
47482;DHT22;33219;47.410;9.730;2024-02-26T18:57:13;8.20;99.60
47482;DHT22;33219;47.410;9.730;2024-02-26T18:59:40;8.20;99.90
47482;DHT22;33219;47.410;9.730;2024-02-26T19:02:09;8.10;99.80
47482;DHT22;33219;47.410;9.730;2024-02-26T19:04:38;8.20;99.80
47482;DHT22;33219;47.410;9.730;2024-02-26T19:07:10;8.20;99.60
47482;DHT22;33219;47.410;9.730;2024-02-26T19:09:38;8.10;99.80
47482;DHT22;33219;47.410;9.730;2024-02-26T19:12:05;8.20;99.40
47482;DHT22;33219;47.410;9.730;2024-02-26T19:14:34;8.20;99.50
47482;DHT22;33219;47.410;9.730;2024-02-26T19:17:02;8.10;99.90
47482;DHT22;33219;47.410;9.730;2024-02-26T19:19:30;8.00;99.80
47482;DHT22;33219;47.410;9.730;2024-02-26T19:21:58;8.00;99.90
47482;DHT22;33219;47.410;9.730;2024-02-26T19:24:27;8.00;99.90
47482;DHT22;33219;47.410;9.730;2024-02-26T19:26:54;8.00;99.90
47482;DHT22;33219;47.410;9.730;2024-02-26T19:29:22;8.00;99.80
47482;DHT22;33219;47.410;9.730;2024-02-26T19:31:51;8.00;99.90
47482;DHT22;33219;47.410;9.730;2024-02-26T19:34:18;8.00;99.90
47482;DHT22;33219;47.410;9.730;2024-02-26T19:36:45;7.90;99.90
47482;DHT22;33219;47.410;9.730;2024-02-26T19:39:12;7.80;99.90
47482;DHT22;33219;47.410;9.730;2024-02-26T19:41:40;7.70;99.90
47482;DHT22;33219;47.410;9.730;2024-02-26T19:44:10;7.60;99.90
47482;DHT22;33219;47.410;9.730;2024-02-26T19:46:36;7.50;99.90
47482;DHT22;33219;47.410;9.730;2024-02-26T19:49:03;7.40;99.90
47482;DHT22;33219;47.410;9.730;2024-02-26T19:51:31;7.50;99.90
47482;DHT22;33219;47.410;9.730;2024-02-26T19:54:00;7.50;99.90
47482;DHT22;33219;47.410;9.730;2024-02-26T19:56:29;7.60;99.90
47482;DHT22;33219;47.410;9.730;2024-02-26T19:58:57;7.50;99.90
47482;DHT22;33219;47.410;9.730;2024-02-26T20:01:26;7.50;99.90
47482;DHT22;33219;47.410;9.730;2024-02-26T20:03:56;7.50;99.90
47482;DHT22;33219;47.410;9.730;2024-02-26T20:06:23;7.50;99.90
47482;DHT22;33219;47.410;9.730;2024-02-26T20:08:51;7.50;99.80
47482;DHT22;33219;47.410;9.730;2024-02-26T20:11:18;7.50;99.80
47482;DHT22;33219;47.410;9.730;2024-02-26T20:13:46;7.50;99.80
47482;DHT22;33219;47.410;9.730;2024-02-26T20:16:13;7.50;99.60
47482;DHT22;33219;47.410;9.730;2024-02-26T20:18:42;7.50;99.50
47482;DHT22;33219;47.410;9.730;2024-02-26T20:21:11;7.50;99.40
47482;DHT22;33219;47.410;9.730;2024-02-26T20:23:39;7.50;99.20
47482;DHT22;33219;47.410;9.730;2024-02-26T20:26:06;7.50;99.30
47482;DHT22;33219;47.410;9.730;2024-02-26T20:28:36;7.50;99.40
47482;DHT22;33219;47.410;9.730;2024-02-26T20:31:04;7.50;99.20
47482;DHT22;33219;47.410;9.730;2024-02-26T20:33:32;7.50;99.20
47482;DHT22;33219;47.410;9.730;2024-02-26T20:35:59;7.50;99.10